createdAt,value
2022-08-25T00:00:24.746Z,29.40
2022-08-25T00:03:13.645Z,26.90
2022-08-25T00:05:41.489Z,32.00
2022-08-25T00:08:09.686Z,30.20
2022-08-25T00:10:39.584Z,32.70
2022-08-25T00:13:08.600Z,29.00
2022-08-25T00:15:38.503Z,30.60
2022-08-25T00:18:11.367Z,31.20
2022-08-25T00:20:49.274Z,28.90
2022-08-25T00:23:18.618Z,32.40
2022-08-25T00:25:46.846Z,28.30
2022-08-25T00:28:17.389Z,26.60
2022-08-25T00:30:46.172Z,28.00
2022-08-25T00:33:15.033Z,30.40
2022-08-25T00:35:43.921Z,30.50
2022-08-25T00:38:13.106Z,29.70
2022-08-25T00:40:43.009Z,28.00
2022-08-25T00:43:12.096Z,27.10
2022-08-25T00:45:41.026Z,28.70
2022-08-25T00:48:09.341Z,29.30
2022-08-25T00:50:37.821Z,31.80
2022-08-25T00:53:08.733Z,35.30
2022-08-25T00:55:40.625Z,26.50
2022-08-25T00:58:19.051Z,29.20
2022-08-25T01:00:51.310Z,31.80
2022-08-25T01:03:21.031Z,32.70
2022-08-25T01:05:54.063Z,26.40
2022-08-25T01:08:29.155Z,28.80
2022-08-25T01:10:59.576Z,25.40
2022-08-25T01:13:51.130Z,30.50
2022-08-25T01:16:19.898Z,29.60
2022-08-25T01:18:51.537Z,34.60
2022-08-25T01:21:22.437Z,27.00
2022-08-25T01:23:52.472Z,33.10
2022-08-25T01:26:28.323Z,32.70
2022-08-25T01:29:20.549Z,30.20
2022-08-25T01:31:51.123Z,28.90
2022-08-25T01:34:21.701Z,32.50
2022-08-25T01:36:50.065Z,30.50
2022-08-25T01:39:18.516Z,28.90
2022-08-25T01:42:05.741Z,24.80
2022-08-25T01:44:36.569Z,27.70
2022-08-25T01:47:06.631Z,29.80
2022-08-25T01:49:35.523Z,31.60
2022-08-25T01:52:29.173Z,34.00
2022-08-25T01:54:57.371Z,30.30
2022-08-25T01:57:25.103Z,29.30
2022-08-25T01:59:53.033Z,32.90
2022-08-25T02:02:20.791Z,24.60
2022-08-25T02:04:50.688Z,30.00
2022-08-25T02:07:19.516Z,32.40
2022-08-25T02:09:47.587Z,33.50
2022-08-25T02:12:16.118Z,33.60
2022-08-25T02:14:44.108Z,30.40
2022-08-25T02:17:12.111Z,41.40
2022-08-25T02:19:40.356Z,40.30
2022-08-25T02:22:09.204Z,34.20
2022-08-25T02:24:37.220Z,41.50
2022-08-25T02:27:05.649Z,39.30
2022-08-25T02:29:34.347Z,40.20
2022-08-25T02:32:03.915Z,39.60
2022-08-25T02:34:32.233Z,38.60
2022-08-25T02:37:00.729Z,39.40
2022-08-25T02:39:29.367Z,40.00
2022-08-25T02:41:57.134Z,44.40
2022-08-25T02:44:24.852Z,40.80
2022-08-25T02:46:52.830Z,41.30
2022-08-25T02:49:21.175Z,43.40
2022-08-25T02:51:49.250Z,44.00
2022-08-25T02:54:16.983Z,41.70
2022-08-25T02:56:45.189Z,48.40
2022-08-25T02:59:13.746Z,46.70
2022-08-25T03:01:42.798Z,46.20
2022-08-25T03:04:11.304Z,63.20
2022-08-25T03:06:40.119Z,41.30
2022-08-25T03:09:09.142Z,48.20
2022-08-25T03:11:38.932Z,46.00
2022-08-25T03:14:09.792Z,44.40
2022-08-25T03:16:38.595Z,47.30
2022-08-25T03:19:08.556Z,52.50
2022-08-25T03:21:39.120Z,46.00
2022-08-25T03:24:08.405Z,46.00
2022-08-25T03:26:55.111Z,42.00
2022-08-25T03:29:33.275Z,37.30
2022-08-25T03:32:02.095Z,44.10
2022-08-25T03:34:31.306Z,46.10
2022-08-25T03:36:59.992Z,44.80
2022-08-25T03:39:29.383Z,46.40
2022-08-25T03:41:57.197Z,48.00
2022-08-25T03:44:25.921Z,49.20
2022-08-25T03:46:54.262Z,58.30
2022-08-25T03:49:24.766Z,52.50
2022-08-25T03:51:55.269Z,48.90
2022-08-25T03:54:26.352Z,48.70
2022-08-25T03:56:55.210Z,38.40
2022-08-25T03:59:23.599Z,56.20
2022-08-25T04:01:55.121Z,55.50
2022-08-25T04:04:24.235Z,43.90
2022-08-25T04:06:53.417Z,35.80
2022-08-25T04:09:22.326Z,40.40
2022-08-25T04:11:52.996Z,41.10
2022-08-25T04:14:23.956Z,31.00
2022-08-25T04:16:53.122Z,30.00
2022-08-25T04:19:22.395Z,32.50
2022-08-25T04:21:52.143Z,35.80
2022-08-25T04:24:25.577Z,34.70
2022-08-25T04:26:55.152Z,36.60
2022-08-25T04:29:25.395Z,25.10
2022-08-25T04:31:55.108Z,28.60
2022-08-25T04:34:29.584Z,31.20
2022-08-25T04:37:03.082Z,27.00
2022-08-25T04:39:33.316Z,33.30
2022-08-25T04:42:02.530Z,34.40
2022-08-25T04:44:32.043Z,29.70
2022-08-25T04:47:00.846Z,28.20
2022-08-25T04:49:29.598Z,30.20
2022-08-25T04:51:57.681Z,27.50
2022-08-25T04:54:26.389Z,29.00
2022-08-25T04:56:58.070Z,27.70
2022-08-25T04:59:30.324Z,26.30
2022-08-25T05:02:03.224Z,46.90
2022-08-25T05:07:03.123Z,26.80
2022-08-25T05:09:33.026Z,25.60
2022-08-25T05:12:03.225Z,27.80
2022-08-25T05:14:32.853Z,25.90
2022-08-25T05:17:02.107Z,26.80
2022-08-25T05:19:30.982Z,27.30
2022-08-25T05:21:59.127Z,26.30
2022-08-25T05:24:28.322Z,27.80
2022-08-25T05:26:58.158Z,26.90
2022-08-25T05:29:27.285Z,26.70
2022-08-25T05:31:56.367Z,26.80
2022-08-25T05:34:25.226Z,25.70
2022-08-25T05:36:53.087Z,25.80
2022-08-25T05:39:20.852Z,27.00
2022-08-25T05:41:48.578Z,27.90
2022-08-25T05:44:20.876Z,31.00
2022-08-25T05:49:17.674Z,28.80
2022-08-25T05:51:45.507Z,26.70
2022-08-25T05:54:13.411Z,30.00
2022-08-25T05:56:41.263Z,28.50
2022-08-25T05:59:09.960Z,32.90
2022-08-25T06:01:56.810Z,28.70
2022-08-25T06:04:24.773Z,26.70
2022-08-25T06:06:54.998Z,27.20
2022-08-25T06:09:23.204Z,34.00
2022-08-25T06:11:54.660Z,31.80
2022-08-25T06:14:24.427Z,30.60
2022-08-25T06:16:53.168Z,40.00
2022-08-25T06:19:23.742Z,34.90
2022-08-25T06:21:57.618Z,32.90
2022-08-25T06:26:54.875Z,33.50
2022-08-25T06:29:25.475Z,33.90
2022-08-25T06:31:53.651Z,32.30
2022-08-25T06:34:23.877Z,34.60
2022-08-25T06:36:53.305Z,31.00
2022-08-25T06:39:22.688Z,31.60
2022-08-25T06:41:55.962Z,31.30
2022-08-25T06:44:24.406Z,31.30
2022-08-25T06:46:52.374Z,33.50
2022-08-25T06:49:20.665Z,36.40
2022-08-25T06:51:49.108Z,36.90
2022-08-25T06:54:18.417Z,33.50
2022-08-25T06:56:47.182Z,36.30
2022-08-25T06:59:19.008Z,32.60
2022-08-25T07:01:47.168Z,40.90
2022-08-25T07:04:19.376Z,31.20
2022-08-25T07:06:48.085Z,32.00
2022-08-25T07:09:15.923Z,35.10
2022-08-25T07:11:45.762Z,31.60
2022-08-25T07:14:16.546Z,32.10
2022-08-25T07:16:49.278Z,37.10
2022-08-25T07:19:21.020Z,36.20
2022-08-25T07:21:52.912Z,33.30
2022-08-25T07:24:22.699Z,35.60
2022-08-25T07:26:51.555Z,31.50
2022-08-25T07:29:31.976Z,36.80
2022-08-25T07:32:02.949Z,32.30
2022-08-25T07:34:52.156Z,31.50
2022-08-25T07:37:47.873Z,33.70
2022-08-25T07:40:22.664Z,34.60
2022-08-25T07:42:53.898Z,35.70
2022-08-25T07:45:29.900Z,30.30
2022-08-25T07:48:00.153Z,37.70
2022-08-25T07:50:29.964Z,35.40
2022-08-25T07:52:59.372Z,33.10
2022-08-25T07:55:30.592Z,34.00
2022-08-25T07:57:59.918Z,36.80
2022-08-25T08:00:30.319Z,34.90
2022-08-25T08:02:59.718Z,28.90
2022-08-25T08:05:28.906Z,28.10
2022-08-25T08:07:57.492Z,29.10
2022-08-25T08:10:47.887Z,29.60
2022-08-25T08:13:18.000Z,32.20
2022-08-25T08:18:16.367Z,31.50
2022-08-25T08:20:46.683Z,32.10
2022-08-25T08:23:15.209Z,38.30
2022-08-25T08:25:43.302Z,34.20
2022-08-25T08:28:12.121Z,37.90
2022-08-25T08:30:53.006Z,32.60
2022-08-25T08:33:23.017Z,34.50
2022-08-25T08:36:05.149Z,34.00
2022-08-25T08:38:37.760Z,31.70
2022-08-25T08:42:09.661Z,30.90
2022-08-25T08:44:45.293Z,33.20
2022-08-25T08:47:52.941Z,36.40
2022-08-25T08:50:51.861Z,33.10
2022-08-25T08:53:41.063Z,31.50
2022-08-25T08:56:16.127Z,29.20
2022-08-25T08:58:49.901Z,31.10
2022-08-25T09:01:26.763Z,35.30
2022-08-25T09:04:08.614Z,32.80
2022-08-25T09:06:42.722Z,30.80
2022-08-25T09:09:23.490Z,28.60
2022-08-25T09:12:28.255Z,31.10
2022-08-25T09:15:18.339Z,30.80
2022-08-25T09:18:00.105Z,28.70
2022-08-25T09:20:41.840Z,28.80
2022-08-25T09:23:31.759Z,29.10
2022-08-25T09:26:16.065Z,26.90
2022-08-25T09:28:55.670Z,22.80
2022-08-25T09:31:29.742Z,27.50
2022-08-25T09:34:02.090Z,26.60
2022-08-25T09:36:37.489Z,24.20
2022-08-25T09:39:08.125Z,29.30
2022-08-25T09:41:40.735Z,31.40
2022-08-25T09:44:20.449Z,32.60
2022-08-25T09:46:57.412Z,30.90
2022-08-25T09:49:44.850Z,30.20
2022-08-25T09:52:23.985Z,27.30
2022-08-25T09:54:56.254Z,23.30
2022-08-25T09:57:30.953Z,30.70
2022-08-25T10:00:30.673Z,25.30
2022-08-25T10:03:22.452Z,30.80
2022-08-25T10:06:03.393Z,31.10
2022-08-25T10:08:39.760Z,26.60
2022-08-25T10:11:15.708Z,29.10
2022-08-25T10:13:51.530Z,26.90
2022-08-25T10:16:35.620Z,30.20
2022-08-25T10:19:08.189Z,29.70
2022-08-25T10:24:06.714Z,24.40
2022-08-25T10:26:37.623Z,25.30
2022-08-25T10:29:32.604Z,30.90
2022-08-25T10:32:24.575Z,25.90
2022-08-25T10:34:56.794Z,26.10
2022-08-25T10:37:55.410Z,22.90
2022-08-25T10:40:37.500Z,26.50
2022-08-25T10:43:08.575Z,32.50
2022-08-25T10:46:18.722Z,27.00
2022-08-25T10:49:28.356Z,27.70
2022-08-25T10:52:07.689Z,27.10
2022-08-25T10:54:54.811Z,26.20
2022-08-25T10:57:46.737Z,21.10
2022-08-25T11:00:24.882Z,32.90
2022-08-25T11:03:26.682Z,27.40
2022-08-25T11:06:20.551Z,21.50
2022-08-25T11:09:00.738Z,22.30
2022-08-25T11:12:07.411Z,30.50
2022-08-25T11:14:49.818Z,20.50
2022-08-25T11:17:25.672Z,24.30
2022-08-25T11:20:04.069Z,19.60
2022-08-25T11:22:45.967Z,19.50
2022-08-25T11:25:32.401Z,18.40
2022-08-25T11:28:38.558Z,20.60
2022-08-25T11:31:08.735Z,21.20
2022-08-25T11:33:40.517Z,22.10
2022-08-25T11:36:29.486Z,20.00
2022-08-25T11:39:16.326Z,32.30
2022-08-25T11:42:09.142Z,22.30
2022-08-25T11:45:02.615Z,15.50
2022-08-25T11:47:33.554Z,25.70
2022-08-25T11:50:25.865Z,25.20
2022-08-25T11:53:15.363Z,17.60
2022-08-25T11:55:53.984Z,17.60
2022-08-25T11:58:28.068Z,16.70
2022-08-25T12:01:01.308Z,15.90
2022-08-25T12:03:32.093Z,17.40
2022-08-25T12:06:34.393Z,20.60
2022-08-25T12:09:04.994Z,16.20
2022-08-25T12:11:39.649Z,16.00
2022-08-25T12:14:22.466Z,16.90
2022-08-25T12:16:51.739Z,16.00
2022-08-25T12:19:35.608Z,17.60
2022-08-25T12:22:04.266Z,17.30
2022-08-25T12:24:48.098Z,14.00
2022-08-25T12:27:43.031Z,16.00
2022-08-25T12:30:18.620Z,18.90
2022-08-25T12:33:16.752Z,17.20
2022-08-25T12:36:03.361Z,13.90
2022-08-25T12:38:49.705Z,22.70
2022-08-25T12:41:24.490Z,18.20
2022-08-25T12:44:09.190Z,25.80
2022-08-25T12:46:39.666Z,17.00
2022-08-25T12:49:34.578Z,18.40
2022-08-25T12:52:07.152Z,15.60
2022-08-25T12:54:42.527Z,14.60
2022-08-25T12:57:40.332Z,17.70
2022-08-25T13:03:09.981Z,14.40
2022-08-25T13:05:41.164Z,14.10
2022-08-25T13:08:48.107Z,14.10
2022-08-25T13:11:39.041Z,20.50
2022-08-25T13:14:37.887Z,22.60
2022-08-25T13:17:07.228Z,26.80
2022-08-25T13:19:38.665Z,18.90
2022-08-25T13:22:16.374Z,11.50
2022-08-25T13:24:50.607Z,14.60
2022-08-25T13:27:27.657Z,16.60
2022-08-25T13:30:04.001Z,15.70
2022-08-25T13:32:38.173Z,16.40
2022-08-25T13:35:26.530Z,14.90
2022-08-25T13:38:16.761Z,21.70
2022-08-25T13:40:45.149Z,22.60
2022-08-25T13:43:15.021Z,26.00
2022-08-25T13:45:46.635Z,15.90
2022-08-25T13:48:31.361Z,20.10
2022-08-25T13:51:21.430Z,17.20
2022-08-25T13:53:58.372Z,20.10
2022-08-25T13:56:40.515Z,19.30
2022-08-25T13:59:28.544Z,17.70
2022-08-25T14:01:56.783Z,18.90
2022-08-25T14:04:33.079Z,21.80
2022-08-25T14:07:37.243Z,16.50
2022-08-25T14:10:11.446Z,18.30
2022-08-25T14:12:49.721Z,22.70
2022-08-25T14:15:17.920Z,16.50
2022-08-25T14:18:00.998Z,18.40
2022-08-25T14:20:31.839Z,43.60
2022-08-25T14:23:07.886Z,99.90
2022-08-25T14:25:42.233Z,74.90
2022-08-25T14:28:18.570Z,55.60
2022-08-25T14:31:00.163Z,39.60
2022-08-25T14:33:35.374Z,27.50
2022-08-25T14:36:05.492Z,24.80
2022-08-25T14:38:34.590Z,27.70
2022-08-25T14:41:02.576Z,24.10
2022-08-25T14:43:31.884Z,19.30
2022-08-25T14:46:10.655Z,21.70
2022-08-25T14:48:45.989Z,18.20
2022-08-25T14:51:17.501Z,22.30
2022-08-25T14:53:45.946Z,16.10
2022-08-25T14:56:14.309Z,21.00
2022-08-25T14:58:50.895Z,17.50
2022-08-25T15:01:28.777Z,18.90
2022-08-25T15:04:22.567Z,24.60
2022-08-25T15:06:56.079Z,16.20
2022-08-25T15:09:25.257Z,24.90
2022-08-25T15:12:01.640Z,18.80
2022-08-25T15:14:33.354Z,13.40
2022-08-25T15:17:03.643Z,16.10
2022-08-25T15:19:31.558Z,14.10
2022-08-25T15:21:59.798Z,20.90
2022-08-25T15:24:28.833Z,23.90
2022-08-25T15:27:00.260Z,16.50
2022-08-25T15:29:31.544Z,22.10
2022-08-25T15:32:01.215Z,16.40
2022-08-25T15:34:43.460Z,17.70
2022-08-25T15:37:18.384Z,16.40
2022-08-25T15:39:48.642Z,16.20
2022-08-25T15:42:17.118Z,16.90
2022-08-25T15:44:53.442Z,17.70
2022-08-25T15:47:24.193Z,22.20
2022-08-25T15:50:04.566Z,18.40
2022-08-25T15:52:44.514Z,16.70
2022-08-25T15:57:44.731Z,15.50
2022-08-25T16:00:16.798Z,15.20
2022-08-25T16:02:46.263Z,11.80
2022-08-25T16:05:16.198Z,17.90
2022-08-25T16:07:51.539Z,20.60
2022-08-25T16:10:20.959Z,23.90
2022-08-25T16:12:50.083Z,20.70
2022-08-25T16:15:17.941Z,17.10
2022-08-25T16:17:52.135Z,16.40
2022-08-25T16:20:21.110Z,17.30
2022-08-25T16:22:52.479Z,15.30
2022-08-25T16:25:21.290Z,17.30
2022-08-25T16:27:49.374Z,10.40
2022-08-25T16:30:18.292Z,16.40
2022-08-25T16:32:47.724Z,18.50
2022-08-25T16:35:15.727Z,16.30
2022-08-25T16:37:44.312Z,12.00
2022-08-25T16:40:14.670Z,15.80
2022-08-25T16:42:43.495Z,14.70
2022-08-25T16:45:12.190Z,14.30
2022-08-25T16:47:42.795Z,12.70
2022-08-25T16:50:12.213Z,18.70
2022-08-25T16:53:00.116Z,13.20
2022-08-25T16:55:39.000Z,12.60
2022-08-25T16:58:12.651Z,17.60
2022-08-25T17:00:43.815Z,14.20
2022-08-25T17:03:13.311Z,16.60
2022-08-25T17:05:42.940Z,11.00
2022-08-25T17:08:30.440Z,14.50
2022-08-25T17:11:27.614Z,12.10
2022-08-25T17:13:58.960Z,16.10
2022-08-25T17:16:31.388Z,22.20
2022-08-25T17:19:07.725Z,14.10
2022-08-25T17:21:45.083Z,16.70
2022-08-25T17:24:16.915Z,12.00
2022-08-25T17:26:47.312Z,16.10
2022-08-25T17:29:18.678Z,11.80
2022-08-25T17:31:48.484Z,17.10
2022-08-25T17:34:22.953Z,17.10
2022-08-25T17:36:54.504Z,15.90
2022-08-25T17:39:23.299Z,18.00
2022-08-25T17:41:52.487Z,13.50
2022-08-25T17:44:21.010Z,14.80
2022-08-25T17:46:49.495Z,21.10
2022-08-25T17:49:18.111Z,18.80
2022-08-25T17:51:46.108Z,18.50
2022-08-25T17:54:14.792Z,16.30
2022-08-25T17:56:44.989Z,15.50
2022-08-25T17:59:14.111Z,17.40
2022-08-25T18:01:42.746Z,14.00
2022-08-25T18:04:17.281Z,20.00
2022-08-25T18:06:48.732Z,16.20
2022-08-25T18:09:32.298Z,14.20
2022-08-25T18:12:00.521Z,15.10
2022-08-25T18:14:28.684Z,14.50
2022-08-25T18:16:57.363Z,19.60
2022-08-25T18:19:25.402Z,19.10
2022-08-25T18:21:53.267Z,16.70
2022-08-25T18:24:23.585Z,16.80
2022-08-25T18:26:51.734Z,14.40
2022-08-25T18:29:20.912Z,20.20
2022-08-25T18:31:49.061Z,19.10
2022-08-25T18:34:17.308Z,14.80
2022-08-25T18:36:46.815Z,17.90
2022-08-25T18:39:34.915Z,15.40
2022-08-25T18:42:05.694Z,13.30
2022-08-25T18:44:34.876Z,17.80
2022-08-25T18:47:07.698Z,15.70
2022-08-25T18:49:37.738Z,24.30
2022-08-25T18:52:07.527Z,18.40
2022-08-25T18:54:36.314Z,15.50
2022-08-25T18:57:05.072Z,20.60
2022-08-25T18:59:37.440Z,15.70
2022-08-25T19:02:07.723Z,20.20
2022-08-25T19:04:35.954Z,21.50
2022-08-25T19:07:05.935Z,18.20
2022-08-25T19:09:36.647Z,20.90
2022-08-25T19:12:06.095Z,23.80
2022-08-25T19:14:39.725Z,20.90
2022-08-25T19:17:08.893Z,17.70
2022-08-25T19:19:36.857Z,22.10
2022-08-25T19:22:04.887Z,22.30
2022-08-25T19:24:33.204Z,22.20
2022-08-25T19:27:03.116Z,17.50
2022-08-25T19:29:31.900Z,21.80
2022-08-25T19:32:01.478Z,19.40
2022-08-25T19:34:35.318Z,20.00
2022-08-25T19:37:04.638Z,18.10
2022-08-25T19:39:35.732Z,20.20
2022-08-25T19:42:08.303Z,15.70
2022-08-25T19:44:57.675Z,20.60
2022-08-25T19:47:26.082Z,21.00
2022-08-25T19:52:27.249Z,22.90
2022-08-25T19:54:57.057Z,17.90
2022-08-25T19:57:28.536Z,17.00
2022-08-25T20:00:29.550Z,20.50
2022-08-25T20:03:00.812Z,15.00
2022-08-25T20:05:30.174Z,18.20
2022-08-25T20:07:59.698Z,19.20
2022-08-25T20:10:33.953Z,17.20
2022-08-25T20:13:12.038Z,23.00
2022-08-25T20:15:41.260Z,17.90
2022-08-25T20:18:09.442Z,24.40
2022-08-25T20:21:06.479Z,24.20
2022-08-25T20:24:09.570Z,20.30
2022-08-25T20:26:38.737Z,17.30
2022-08-25T20:29:13.144Z,20.20
2022-08-25T20:31:41.606Z,18.10
2022-08-25T20:34:13.540Z,20.80
2022-08-25T20:36:50.024Z,22.40
2022-08-25T20:39:21.418Z,16.50
2022-08-25T20:41:50.222Z,17.20
2022-08-25T20:44:20.096Z,24.80
2022-08-25T20:46:52.531Z,15.90
2022-08-25T20:49:27.380Z,19.90
2022-08-25T20:51:57.230Z,19.30
2022-08-25T20:54:27.914Z,17.50
2022-08-25T20:56:58.559Z,20.50
2022-08-25T20:59:28.509Z,21.30
2022-08-25T21:01:58.463Z,19.10
2022-08-25T21:04:29.957Z,23.50
2022-08-25T21:07:01.202Z,19.00
2022-08-25T21:09:30.168Z,19.60
2022-08-25T21:12:01.804Z,21.50
2022-08-25T21:14:30.511Z,22.70
2022-08-25T21:17:01.463Z,21.00
2022-08-25T21:19:32.229Z,21.30
2022-08-25T21:22:02.006Z,22.20
2022-08-25T21:24:30.344Z,21.10
2022-08-25T21:27:00.228Z,22.40
2022-08-25T21:29:29.998Z,18.10
2022-08-25T21:31:59.798Z,22.10
2022-08-25T21:34:31.295Z,20.80
2022-08-25T21:37:00.390Z,33.40
2022-08-25T21:39:32.497Z,21.70
2022-08-25T21:42:02.091Z,23.20
2022-08-25T21:44:30.803Z,25.30
2022-08-25T21:47:00.157Z,28.20
2022-08-25T21:49:28.183Z,27.40
2022-08-25T21:52:00.859Z,22.10
2022-08-25T21:54:30.461Z,19.80
2022-08-25T21:57:03.321Z,24.70
2022-08-25T21:59:37.789Z,22.50
2022-08-25T22:02:11.403Z,21.50
2022-08-25T22:04:42.189Z,27.70
2022-08-25T22:07:12.398Z,24.10
2022-08-25T22:09:42.070Z,22.80
2022-08-25T22:12:12.815Z,21.30
2022-08-25T22:14:45.215Z,20.30
2022-08-25T22:17:17.038Z,22.90
2022-08-25T22:19:53.855Z,20.80
2022-08-25T22:22:25.511Z,21.20
2022-08-25T22:24:53.590Z,23.50
2022-08-25T22:27:23.363Z,25.50
2022-08-25T22:32:55.857Z,26.90
2022-08-25T22:35:25.356Z,21.90
2022-08-25T22:37:55.271Z,23.20
2022-08-25T22:40:23.115Z,22.10
2022-08-25T22:42:55.027Z,20.70
2022-08-25T22:45:23.178Z,21.20
2022-08-25T22:47:53.435Z,26.00
2022-08-25T22:50:23.223Z,23.50
2022-08-25T22:52:52.741Z,23.90
2022-08-25T22:55:22.624Z,24.20
2022-08-25T22:57:50.420Z,22.70
2022-08-25T23:00:25.157Z,20.70
2022-08-25T23:03:12.549Z,24.60
2022-08-25T23:05:42.498Z,22.80
2022-08-25T23:08:11.990Z,24.00
2022-08-25T23:13:34.750Z,19.90
2022-08-25T23:16:10.193Z,27.70
2022-08-25T23:18:43.769Z,21.30
2022-08-25T23:21:37.858Z,22.00
2022-08-25T23:24:13.428Z,23.70
2022-08-25T23:26:43.370Z,23.10
2022-08-25T23:29:20.425Z,23.80
2022-08-25T23:31:48.520Z,24.40
2022-08-25T23:34:18.140Z,20.20
2022-08-25T23:36:45.960Z,19.10
2022-08-25T23:39:17.404Z,20.10
2022-08-25T23:41:47.226Z,20.50
2022-08-25T23:44:21.415Z,19.60
2022-08-25T23:46:51.428Z,23.10
2022-08-25T23:49:23.472Z,20.10
2022-08-25T23:51:57.264Z,26.40
2022-08-25T23:54:31.429Z,24.80
2022-08-25T23:57:01.597Z,21.70
2022-08-25T23:59:30.929Z,21.40
